createdAt,value
2023-01-11T00:02:29.937Z,97316.13
2023-01-11T00:05:04.907Z,97321.05
2023-01-11T00:07:33.593Z,97325.49
2023-01-11T00:10:04.969Z,97330.41
2023-01-11T00:12:33.527Z,97329.11
2023-01-11T00:15:02.233Z,97326.98
2023-01-11T00:17:30.915Z,97332.81
2023-01-11T00:19:59.426Z,97344.59
2023-01-11T00:22:29.323Z,97356.17
2023-01-11T00:25:00.475Z,97363.02
2023-01-11T00:27:29.045Z,97363.33
2023-01-11T00:30:01.264Z,97358.80
2023-01-11T00:32:32.675Z,97367.34
2023-01-11T00:35:01.314Z,97380.62
2023-01-11T00:37:30.144Z,97392.52
2023-01-11T00:39:58.757Z,97401.44
2023-01-11T00:42:48.785Z,97405.08
2023-01-11T00:45:35.884Z,97403.94
2023-01-11T00:48:06.200Z,97398.73
2023-01-11T00:50:37.104Z,97398.95
2023-01-11T00:53:06.713Z,97398.84
2023-01-11T00:55:35.616Z,97400.86
2023-01-11T00:58:04.858Z,97400.09
2023-01-11T01:00:36.221Z,97397.76
2023-01-11T01:03:04.780Z,97395.30
2023-01-11T01:05:33.645Z,97399.55
2023-01-11T01:08:02.414Z,97403.44
2023-01-11T01:10:33.603Z,97399.52
2023-01-11T01:13:20.617Z,97397.55
2023-01-11T01:15:56.672Z,97394.58
2023-01-11T01:18:30.512Z,97385.81
2023-01-11T01:21:02.148Z,97390.61
2023-01-11T01:23:30.847Z,97396.18
2023-01-11T01:26:04.315Z,97401.27
2023-01-11T01:28:33.502Z,97400.50
2023-01-11T01:31:03.312Z,97401.50
2023-01-11T01:33:34.976Z,97401.54
2023-01-11T01:36:09.802Z,97412.00
2023-01-11T01:38:38.401Z,97418.42
2023-01-11T01:41:07.259Z,97416.45
2023-01-11T01:44:07.026Z,97414.88
2023-01-11T01:46:35.547Z,97421.61
2023-01-11T01:49:10.022Z,97426.52
2023-01-11T01:51:52.550Z,97431.47
2023-01-11T01:54:25.822Z,97429.06
2023-01-11T01:57:05.380Z,97424.66
2023-01-11T01:59:34.381Z,97420.79
2023-01-11T02:02:03.175Z,97427.90
2023-01-11T02:04:42.145Z,97436.08
2023-01-11T02:07:13.435Z,97441.48
2023-01-11T02:09:48.895Z,97446.42
2023-01-11T02:12:18.573Z,97445.11
2023-01-11T02:14:49.297Z,97443.89
2023-01-11T02:17:17.917Z,97449.86
2023-01-11T02:20:07.797Z,97452.08
2023-01-11T02:22:57.866Z,97451.89
2023-01-11T02:26:14.422Z,97455.61
2023-01-11T02:29:19.036Z,97458.58
2023-01-11T02:32:11.260Z,97463.36
2023-01-11T02:35:10.014Z,97467.02
2023-01-11T02:37:47.640Z,97469.30
2023-01-11T02:40:35.487Z,97475.60
2023-01-11T02:43:47.003Z,97477.86
2023-01-11T02:46:43.510Z,97481.47
2023-01-11T02:49:47.317Z,97473.84
2023-01-11T02:52:25.606Z,97475.77
2023-01-11T02:55:01.050Z,97473.45
2023-01-11T02:57:32.076Z,97468.75
2023-01-11T03:00:02.575Z,97471.20
2023-01-11T03:02:31.366Z,97479.34
2023-01-11T03:04:59.992Z,97484.06
2023-01-11T03:07:43.978Z,97487.33
2023-01-11T03:10:30.748Z,97494.92
2023-01-11T03:13:16.894Z,97486.91
2023-01-11T03:16:18.687Z,97481.16
2023-01-11T03:18:59.603Z,97479.56
2023-01-11T03:21:57.528Z,97480.45
2023-01-11T03:24:33.930Z,97485.33
2023-01-11T03:27:25.725Z,97489.52
2023-01-11T03:30:20.544Z,97485.71
2023-01-11T03:33:11.635Z,97485.56
2023-01-11T03:36:07.714Z,97489.55
2023-01-11T03:39:06.053Z,97492.77
2023-01-11T03:41:40.543Z,97497.11
2023-01-11T03:44:13.061Z,97487.61
2023-01-11T03:46:53.794Z,97482.41
2023-01-11T03:49:36.803Z,97505.64
2023-01-11T03:52:09.942Z,97505.36
2023-01-11T03:54:40.677Z,97502.14
2023-01-11T03:57:23.800Z,97510.98
2023-01-11T03:59:52.418Z,97500.60
2023-01-11T04:02:25.478Z,97505.62
2023-01-11T04:04:54.153Z,97511.36
2023-01-11T04:07:27.364Z,97514.91
2023-01-11T04:09:59.012Z,97521.59
2023-01-11T04:12:27.673Z,97520.42
2023-01-11T04:14:56.262Z,97508.45
2023-01-11T04:17:24.852Z,97502.83
2023-01-11T04:19:53.479Z,97503.13
2023-01-11T04:22:24.894Z,97510.98
2023-01-11T04:24:53.395Z,97519.06
2023-01-11T04:27:22.585Z,97519.52
2023-01-11T04:29:51.146Z,97512.71
2023-01-11T04:32:23.612Z,97519.52
2023-01-11T04:34:52.190Z,97525.41
2023-01-11T04:37:23.787Z,97521.61
2023-01-11T04:39:55.532Z,97514.87
2023-01-11T04:42:26.387Z,97521.16
2023-01-11T04:44:54.969Z,97535.54
2023-01-11T04:47:25.399Z,97538.89
2023-01-11T04:49:56.661Z,97544.73
2023-01-11T04:52:25.220Z,97545.30
2023-01-11T04:54:54.219Z,97547.48
2023-01-11T04:57:27.318Z,97550.83
2023-01-11T04:59:59.019Z,97553.75
2023-01-11T05:02:28.271Z,97545.98
2023-01-11T05:04:56.840Z,97550.98
2023-01-11T05:07:26.713Z,97554.56
2023-01-11T05:09:55.331Z,97554.77
2023-01-11T05:12:27.142Z,97557.48
2023-01-11T05:14:59.360Z,97562.29
2023-01-11T05:17:27.944Z,97570.96
2023-01-11T05:20:00.101Z,97576.59
2023-01-11T05:22:28.765Z,97580.99
2023-01-11T05:24:57.277Z,97584.37
2023-01-11T05:27:26.022Z,97589.02
2023-01-11T05:29:54.523Z,97591.83
2023-01-11T05:32:26.620Z,97595.47
2023-01-11T05:34:55.272Z,97597.80
2023-01-11T05:37:24.350Z,97599.62
2023-01-11T05:39:55.498Z,97598.49
2023-01-11T05:42:24.077Z,97604.75
2023-01-11T05:45:11.256Z,97608.69
2023-01-11T05:47:40.541Z,97607.98
2023-01-11T05:50:10.191Z,97614.96
2023-01-11T05:52:38.742Z,97610.30
2023-01-11T05:55:08.580Z,97608.45
2023-01-11T05:57:40.916Z,97605.11
2023-01-11T06:00:10.686Z,97605.73
2023-01-11T06:02:39.922Z,97605.05
2023-01-11T06:05:09.148Z,97603.48
2023-01-11T06:07:37.817Z,97609.84
2023-01-11T06:10:07.898Z,97618.17
2023-01-11T06:12:39.556Z,97618.54
2023-01-11T06:15:08.749Z,97618.70
2023-01-11T06:17:37.512Z,97624.02
2023-01-11T06:20:07.075Z,97627.22
2023-01-11T06:22:35.876Z,97630.02
2023-01-11T06:25:07.381Z,97644.52
2023-01-11T06:27:36.120Z,97645.73
2023-01-11T06:30:05.062Z,97645.62
2023-01-11T06:32:34.914Z,97651.88
2023-01-11T06:35:03.678Z,97656.99
2023-01-11T06:37:33.500Z,97662.73
2023-01-11T06:40:02.174Z,97665.78
2023-01-11T06:42:30.778Z,97671.91
2023-01-11T06:44:59.350Z,97677.55
2023-01-11T06:47:28.073Z,97681.39
2023-01-11T06:49:56.673Z,97686.13
2023-01-11T06:52:26.166Z,97683.95
2023-01-11T06:54:54.728Z,97687.73
2023-01-11T06:57:25.660Z,97686.59
2023-01-11T06:59:54.792Z,97683.70
2023-01-11T07:02:23.537Z,97682.59
2023-01-11T07:04:52.289Z,97687.00
2023-01-11T07:07:21.041Z,97689.55
2023-01-11T07:09:49.660Z,97692.70
2023-01-11T07:12:18.355Z,97696.16
2023-01-11T07:14:46.975Z,97694.31
2023-01-11T07:17:16.281Z,97700.83
2023-01-11T07:19:44.819Z,97715.48
2023-01-11T07:22:16.557Z,97721.40
2023-01-11T07:24:46.972Z,97726.02
2023-01-11T07:27:17.036Z,97730.51
2023-01-11T07:29:50.369Z,97732.63
2023-01-11T07:32:19.015Z,97736.25
2023-01-11T07:34:51.523Z,97745.13
2023-01-11T07:37:28.189Z,97742.56
2023-01-11T07:40:00.287Z,97739.74
2023-01-11T07:42:47.615Z,97738.92
2023-01-11T07:45:19.019Z,97732.24
2023-01-11T07:47:51.662Z,97730.70
2023-01-11T07:50:20.284Z,97739.13
2023-01-11T07:52:49.841Z,97745.96
2023-01-11T07:55:22.858Z,97750.41
2023-01-11T07:57:51.421Z,97748.25
2023-01-11T08:00:21.886Z,97744.16
2023-01-11T08:02:52.731Z,97739.04
2023-01-11T08:05:21.993Z,97746.16
2023-01-11T08:07:53.824Z,97747.70
2023-01-11T08:10:25.638Z,97746.71
2023-01-11T08:13:13.125Z,97751.23
2023-01-11T08:15:45.083Z,97754.20
2023-01-11T08:18:18.146Z,97761.35
2023-01-11T08:20:47.980Z,97762.69
2023-01-11T08:23:16.695Z,97766.83
2023-01-11T08:25:45.840Z,97772.98
2023-01-11T08:28:14.530Z,97768.81
2023-01-11T08:30:44.486Z,97770.36
2023-01-11T08:33:13.110Z,97775.24
2023-01-11T08:35:42.078Z,97779.91
2023-01-11T08:38:10.880Z,97781.29
2023-01-11T08:40:40.805Z,97788.17
2023-01-11T08:43:09.524Z,97789.66
2023-01-11T08:45:38.613Z,97788.95
2023-01-11T08:48:07.480Z,97794.96
2023-01-11T08:50:36.011Z,97804.27
2023-01-11T08:53:04.512Z,97811.63
2023-01-11T08:55:33.332Z,97816.98
2023-01-11T08:58:03.154Z,97824.63
2023-01-11T09:00:31.552Z,97825.65
2023-01-11T09:03:03.009Z,97826.09
2023-01-11T09:05:32.464Z,97824.36
2023-01-11T09:08:02.217Z,97812.20
2023-01-11T09:10:34.639Z,97808.64
2023-01-11T09:13:05.688Z,97807.42
2023-01-11T09:15:35.575Z,97807.61
2023-01-11T09:18:08.464Z,97805.31
2023-01-11T09:20:38.084Z,97803.23
2023-01-11T09:23:07.136Z,97802.67
2023-01-11T09:25:37.171Z,97800.27
2023-01-11T09:28:05.584Z,97812.41
2023-01-11T09:30:34.047Z,97817.90
2023-01-11T09:33:05.104Z,97812.67
2023-01-11T09:35:35.299Z,97805.17
2023-01-11T09:38:03.713Z,97799.06
2023-01-11T09:41:01.536Z,97784.61
2023-01-11T09:43:31.390Z,97782.12
2023-01-11T09:46:08.150Z,97779.01
2023-01-11T09:48:48.132Z,97782.27
2023-01-11T09:51:19.337Z,97785.61
2023-01-11T09:53:54.050Z,97794.79
2023-01-11T09:56:28.743Z,97813.05
2023-01-11T09:59:20.413Z,97821.94
2023-01-11T10:02:23.582Z,97811.69
2023-01-11T10:05:19.799Z,97805.61
2023-01-11T10:18:29.449Z,97808.52
2023-01-11T10:18:41.723Z,97805.94
2023-01-11T10:21:16.725Z,97814.08
2023-01-11T10:23:54.430Z,97809.10
2023-01-11T10:26:30.004Z,97819.22
2023-01-11T10:29:16.194Z,97822.44
2023-01-11T10:32:26.058Z,97820.58
2023-01-11T10:35:14.599Z,97822.17
2023-01-11T10:38:05.241Z,97820.42
2023-01-11T10:41:07.539Z,97828.42
2023-01-11T10:43:41.865Z,97825.73
2023-01-11T10:46:27.752Z,97831.80
2023-01-11T10:49:26.638Z,97826.70
2023-01-11T10:52:04.116Z,97815.77
2023-01-11T10:54:37.401Z,97821.13
2023-01-11T10:57:31.851Z,97815.17
2023-01-11T11:00:19.888Z,97807.85
2023-01-11T11:03:04.664Z,97801.79
2023-01-11T11:06:08.363Z,97797.70
2023-01-11T11:09:18.578Z,97797.42
2023-01-11T11:12:33.460Z,97802.05
2023-01-11T11:15:15.687Z,97801.44
2023-01-11T11:17:50.592Z,97798.41
2023-01-11T11:20:25.219Z,97802.27
2023-01-11T11:22:55.145Z,97802.64
2023-01-11T11:25:38.453Z,97805.88
2023-01-11T11:28:32.515Z,97813.30
2023-01-11T11:31:05.603Z,97817.11
2023-01-11T11:33:37.211Z,97821.36
2023-01-11T11:36:09.031Z,97822.83
2023-01-11T11:38:39.972Z,97815.36
2023-01-11T11:41:20.054Z,97811.20
2023-01-11T11:43:48.632Z,97809.48
2023-01-11T11:46:20.593Z,97805.80
2023-01-11T11:49:17.516Z,97811.33
2023-01-11T11:51:48.035Z,97820.51
2023-01-11T11:54:27.484Z,97817.77
2023-01-11T11:56:59.086Z,97818.29
2023-01-11T11:59:33.312Z,97818.89
2023-01-11T12:02:05.369Z,97818.30
2023-01-11T12:04:55.022Z,97820.31
2023-01-11T12:07:27.427Z,97818.49
2023-01-11T12:10:01.166Z,97818.41
2023-01-11T12:12:33.275Z,97817.45
2023-01-11T12:15:16.300Z,97814.71
2023-01-11T12:17:44.716Z,97816.75
2023-01-11T12:20:22.436Z,97817.20
2023-01-11T12:23:10.156Z,97816.87
2023-01-11T12:26:21.887Z,97814.42
2023-01-11T12:28:57.054Z,97809.52
2023-01-11T12:31:34.599Z,97807.39
2023-01-11T12:34:06.221Z,97810.88
2023-01-11T12:36:44.467Z,97814.04
2023-01-11T12:39:51.495Z,97819.21
2023-01-11T12:42:44.457Z,97824.73
2023-01-11T12:45:32.167Z,97829.20
2023-01-11T12:48:37.432Z,97825.63
2023-01-11T12:51:35.704Z,97824.73
2023-01-11T12:54:25.671Z,97819.93
2023-01-11T12:57:30.081Z,97816.23
2023-01-11T13:00:43.458Z,97816.02
2023-01-11T13:03:11.880Z,97818.91
2023-01-11T13:06:00.874Z,97824.21
2023-01-11T13:08:58.056Z,97825.10
2023-01-11T13:11:49.103Z,97826.65
2023-01-11T13:14:42.237Z,97834.13
2023-01-11T13:17:10.550Z,97833.10
2023-01-11T13:20:01.379Z,97839.10
2023-01-11T13:22:35.791Z,97840.74
2023-01-11T13:25:19.219Z,97844.27
2023-01-11T13:27:49.936Z,97847.30
2023-01-11T13:30:20.339Z,97851.65
2023-01-11T13:32:58.652Z,97853.36
2023-01-11T13:35:57.035Z,97854.95
2023-01-11T13:38:49.917Z,97856.17
2023-01-11T13:41:24.100Z,97856.75
2023-01-11T13:44:10.791Z,97856.75
2023-01-11T13:46:49.647Z,97852.94
2023-01-11T13:49:30.213Z,97856.48
2023-01-11T13:52:00.396Z,97855.92
2023-01-11T13:54:38.323Z,97855.46
2023-01-11T13:57:30.460Z,97855.57
2023-01-11T14:00:10.073Z,97855.37
2023-01-11T14:02:46.354Z,97850.84
2023-01-11T14:05:19.082Z,97853.60
2023-01-11T14:08:18.136Z,97853.76
2023-01-11T14:11:10.948Z,97853.27
2023-01-11T14:14:15.464Z,97857.06
2023-01-11T14:16:59.768Z,97854.35
2023-01-11T14:19:53.394Z,97854.84
2023-01-11T14:22:59.054Z,97853.67
2023-01-11T14:26:02.146Z,97848.48
2023-01-11T14:28:52.117Z,97846.02
2023-01-11T14:31:41.881Z,97847.80
2023-01-11T14:34:26.460Z,97849.68
2023-01-11T14:37:11.275Z,97849.19
2023-01-11T14:40:01.911Z,97850.79
2023-01-11T14:42:39.651Z,97848.08
2023-01-11T14:45:20.710Z,97840.66
2023-01-11T14:48:04.828Z,97844.05
2023-01-11T14:50:58.867Z,97850.42
2023-01-11T14:53:36.593Z,97859.58
2023-01-11T14:56:05.500Z,97862.14
2023-01-11T14:58:34.321Z,97866.54
2023-01-11T15:01:10.165Z,97872.16
2023-01-11T15:03:45.862Z,97874.71
2023-01-11T15:06:17.253Z,97881.66
2023-01-11T15:08:52.752Z,97882.65
2023-01-11T15:11:33.241Z,97881.23
2023-01-11T15:14:24.130Z,97884.38
2023-01-11T15:17:13.877Z,97879.62
2023-01-11T15:19:44.523Z,97872.26
2023-01-11T15:22:31.230Z,97867.18
2023-01-11T15:25:07.169Z,97873.05
2023-01-11T15:27:40.126Z,97881.14
2023-01-11T15:30:32.198Z,97889.67
2023-01-11T15:33:19.383Z,97891.85
2023-01-11T15:35:57.242Z,97893.86
2023-01-11T15:38:49.451Z,97890.64
2023-01-11T15:42:05.071Z,97897.56
2023-01-11T15:44:36.683Z,97901.56
2023-01-11T15:47:16.650Z,97900.69
2023-01-11T15:50:17.129Z,97894.19
2023-01-11T15:53:04.685Z,97889.06
2023-01-11T15:56:06.293Z,97890.41
2023-01-11T15:58:56.124Z,97894.80
2023-01-11T16:01:29.761Z,97903.21
2023-01-11T16:04:32.403Z,97910.19
2023-01-11T16:07:40.678Z,97912.95
2023-01-11T16:10:31.482Z,97912.02
2023-01-11T16:13:30.046Z,97907.55
2023-01-11T16:16:19.329Z,97901.40
2023-01-11T16:18:58.268Z,97900.29
2023-01-11T16:21:36.591Z,97900.04
2023-01-11T16:27:34.229Z,97909.17
2023-01-11T16:30:03.541Z,97907.30
2023-01-11T16:32:36.038Z,97906.41
2023-01-11T16:35:18.658Z,97901.55
2023-01-11T16:38:01.537Z,97905.06
2023-01-11T16:40:38.159Z,97906.87
2023-01-11T16:43:19.285Z,97909.84
2023-01-11T16:45:54.452Z,97915.95
2023-01-11T16:48:28.663Z,97919.20
2023-01-11T16:51:06.021Z,97921.82
2023-01-11T16:53:42.138Z,97926.17
2023-01-11T16:56:18.906Z,97931.13
2023-01-11T16:59:15.667Z,97936.41
2023-01-11T17:02:04.037Z,97943.18
2023-01-11T17:04:49.496Z,97946.17
2023-01-11T17:07:25.533Z,97950.91
2023-01-11T17:09:54.358Z,97952.51
2023-01-11T17:12:27.789Z,97954.02
2023-01-11T17:15:30.380Z,97955.63
2023-01-11T17:18:05.084Z,97958.70
2023-01-11T17:20:35.245Z,97963.24
2023-01-11T17:23:06.518Z,97965.00
2023-01-11T17:25:44.649Z,97962.60
2023-01-11T17:28:20.115Z,97963.83
2023-01-11T17:30:53.120Z,97956.74
2023-01-11T17:33:28.512Z,97951.98
2023-01-11T17:35:59.164Z,97951.67
2023-01-11T17:38:28.598Z,97954.60
2023-01-11T17:41:03.006Z,97959.81
2023-01-11T17:43:50.555Z,97969.76
2023-01-11T17:46:23.951Z,97971.48
2023-01-11T17:48:56.280Z,97970.45
2023-01-11T17:51:34.244Z,97973.27
2023-01-11T17:54:03.025Z,97981.42
2023-01-11T17:56:38.180Z,97987.11
2023-01-11T17:59:18.940Z,97982.73
2023-01-11T18:01:49.537Z,97977.95
2023-01-11T18:04:21.745Z,97981.36
2023-01-11T18:06:54.293Z,97984.73
2023-01-11T18:09:36.521Z,97986.48
2023-01-11T18:12:32.894Z,97986.08
2023-01-11T18:15:04.906Z,97988.58
2023-01-11T18:17:39.199Z,97989.30
2023-01-11T18:20:10.948Z,97991.08
2023-01-11T18:22:59.206Z,97994.30
2023-01-11T18:25:30.675Z,97999.80
2023-01-11T18:28:22.311Z,97999.23
2023-01-11T18:31:02.182Z,97993.16
2023-01-11T18:33:34.913Z,98001.38
2023-01-11T18:36:04.875Z,97999.48
2023-01-11T18:38:36.548Z,97999.83
2023-01-11T18:41:28.501Z,97995.98
2023-01-11T18:44:01.322Z,98001.13
2023-01-11T18:46:30.480Z,97997.16
2023-01-11T18:49:00.117Z,97986.85
2023-01-11T18:51:34.426Z,97986.20
2023-01-11T18:54:05.847Z,97980.98
2023-01-11T18:56:34.955Z,97977.18
2023-01-11T18:59:03.720Z,97978.13
2023-01-11T19:01:37.630Z,97982.66
2023-01-11T19:04:12.496Z,97983.16
2023-01-11T19:07:01.388Z,97983.86
2023-01-11T19:09:32.617Z,97988.47
2023-01-11T19:12:02.244Z,97995.67
2023-01-11T19:18:16.371Z,98002.00
2023-01-11T19:20:43.939Z,98010.27
2023-01-11T19:23:12.851Z,98019.42
2023-01-11T19:25:41.166Z,98024.70
2023-01-11T19:28:09.105Z,98026.05
2023-01-11T19:30:38.819Z,98033.54
2023-01-11T19:33:06.170Z,98035.20
2023-01-11T19:35:33.762Z,98039.04
2023-01-11T19:38:01.405Z,98042.43
2023-01-11T19:40:28.856Z,98046.98
2023-01-11T19:42:57.745Z,98042.63
2023-01-11T19:45:24.955Z,98041.52
2023-01-11T19:47:52.256Z,98037.05
2023-01-11T19:50:19.949Z,98032.86
2023-01-11T19:52:50.196Z,98040.35
2023-01-11T19:55:17.515Z,98044.08
2023-01-11T19:57:47.109Z,98047.14
2023-01-11T20:00:14.796Z,98045.57
2023-01-11T20:02:42.191Z,98046.17
2023-01-11T20:05:09.539Z,98046.17
2023-01-11T20:07:36.694Z,98045.70
2023-01-11T20:10:04.281Z,98043.60
2023-01-11T20:12:31.736Z,98049.15
2023-01-11T20:15:00.864Z,98050.16
2023-01-11T20:17:32.639Z,98049.23
2023-01-11T20:20:00.288Z,98047.65
2023-01-11T20:22:29.023Z,98047.06
2023-01-11T20:25:00.098Z,98045.56
2023-01-11T20:27:33.681Z,98043.52
2023-01-11T20:30:01.741Z,98039.00
2023-01-11T20:32:40.831Z,98040.73
2023-01-11T20:35:09.996Z,98044.70
2023-01-11T20:37:37.533Z,98052.55
2023-01-11T20:40:07.460Z,98055.54
2023-01-11T20:42:34.903Z,98056.77
2023-01-11T20:45:02.163Z,98054.09
2023-01-11T20:47:29.340Z,98050.59
2023-01-11T20:49:56.468Z,98053.17
2023-01-11T20:52:23.628Z,98058.98
2023-01-11T20:54:50.982Z,98071.38
2023-01-11T20:57:18.235Z,98083.70
2023-01-11T20:59:45.260Z,98091.69
2023-01-11T21:02:13.065Z,98099.41
2023-01-11T21:04:40.196Z,98108.34
2023-01-11T21:07:07.331Z,98110.94
2023-01-11T21:09:34.385Z,98108.92
2023-01-11T21:12:02.499Z,98100.05
2023-01-11T21:14:30.748Z,98093.69
2023-01-11T21:16:57.965Z,98093.21
2023-01-11T21:19:25.815Z,98089.45
2023-01-11T21:21:53.471Z,98089.88
2023-01-11T21:24:21.733Z,98093.05
2023-01-11T21:26:48.774Z,98092.86
2023-01-11T21:29:15.950Z,98094.29
2023-01-11T21:31:43.189Z,98095.48
2023-01-11T21:34:12.037Z,98100.60
2023-01-11T21:36:39.919Z,98105.86
2023-01-11T21:39:07.800Z,98108.11
2023-01-11T21:41:53.291Z,98105.95
2023-01-11T21:44:22.932Z,98105.42
2023-01-11T21:46:50.988Z,98108.81
2023-01-11T21:49:22.088Z,98108.87
2023-01-11T21:55:18.065Z,98090.33
2023-01-11T21:57:46.703Z,98091.27
2023-01-11T22:00:17.222Z,98092.77
2023-01-11T22:02:51.958Z,98075.80
2023-01-11T22:05:24.005Z,98070.80
2023-01-11T22:07:56.448Z,98074.02
2023-01-11T22:10:30.201Z,98073.52
2023-01-11T22:12:59.538Z,98069.23
2023-01-11T22:15:33.639Z,98067.32
2023-01-11T22:18:02.285Z,98070.54
2023-01-11T22:20:31.725Z,98069.56
2023-01-11T22:23:01.163Z,98067.55
2023-01-11T22:25:32.488Z,98067.48
2023-01-11T22:28:04.124Z,98063.77
2023-01-11T22:30:36.201Z,98062.30
2023-01-11T22:33:10.430Z,98068.81
2023-01-11T22:35:38.993Z,98077.67
2023-01-11T22:38:07.491Z,98073.95
2023-01-11T22:40:36.444Z,98072.50
2023-01-11T22:43:05.045Z,98073.05
2023-01-11T22:45:33.651Z,98075.78
2023-01-11T22:48:07.392Z,98074.88
2023-01-11T22:50:43.955Z,98070.84
2023-01-11T22:53:14.969Z,98073.89
2023-01-11T22:55:43.856Z,98080.98
2023-01-11T22:58:12.861Z,98084.18
2023-01-11T23:00:43.778Z,98084.48
2023-01-11T23:03:15.850Z,98084.45
2023-01-11T23:05:46.528Z,98083.05
2023-01-11T23:08:16.635Z,98083.66
2023-01-11T23:10:45.355Z,98088.21
2023-01-11T23:13:32.628Z,98093.34
2023-01-11T23:16:01.288Z,98096.14
2023-01-11T23:18:32.493Z,98090.80
2023-01-11T23:21:05.522Z,98086.97
2023-01-11T23:23:34.215Z,98085.18
2023-01-11T23:26:02.758Z,98076.37
2023-01-11T23:28:33.206Z,98065.48
2023-01-11T23:31:12.319Z,98057.36
2023-01-11T23:33:43.461Z,98054.23
2023-01-11T23:36:12.408Z,98059.47
2023-01-11T23:38:44.123Z,98074.50
2023-01-11T23:41:36.911Z,98086.61
2023-01-11T23:44:09.395Z,98085.99
2023-01-11T23:47:00.949Z,98082.45
2023-01-11T23:49:33.461Z,98083.36
2023-01-11T23:52:02.581Z,98087.00
2023-01-11T23:54:33.971Z,98089.74
2023-01-11T23:57:04.491Z,98084.73
2023-01-11T23:59:36.146Z,98082.61
